createdAt,value
2022-11-19T08:49:27.911Z,99.32
2022-11-19T08:51:57.552Z,98.09
2022-11-19T09:35:03.535Z,96.94
2022-11-19T09:37:34.128Z,96.53
2022-11-19T09:40:02.257Z,96.71
2022-11-19T09:42:39.106Z,96.17
2022-11-19T09:45:27.832Z,96.16
2022-11-19T09:48:07.956Z,96.11
2022-11-19T09:50:51.824Z,96.15
2022-11-19T09:53:22.719Z,95.40
2022-11-19T09:55:53.093Z,95.91
2022-11-19T09:58:24.961Z,96.25
2022-11-19T10:00:53.049Z,96.45
2022-11-19T10:03:27.359Z,96.40
2022-11-19T10:06:11.560Z,95.44
2022-11-19T10:08:50.768Z,96.31
2022-11-19T10:11:30.606Z,95.28
2022-11-19T10:14:04.954Z,95.72
2022-11-19T10:16:43.109Z,95.87
2022-11-19T10:19:19.187Z,95.08
2022-11-19T10:21:53.235Z,95.46
2022-11-19T10:24:28.826Z,95.88
2022-11-19T10:27:04.319Z,95.41
2022-11-19T10:29:38.986Z,95.08
2022-11-19T10:32:23.993Z,94.85
2022-11-19T10:34:54.083Z,94.92
2022-11-19T10:37:24.365Z,94.97
2022-11-19T10:39:54.713Z,94.72
2022-11-19T10:42:26.205Z,93.81
2022-11-19T10:44:58.265Z,94.13
2022-11-19T10:47:31.771Z,93.93
2022-11-19T10:49:59.877Z,94.46
2022-11-19T10:52:32.227Z,94.35
2022-11-19T10:55:04.277Z,94.40
2022-11-19T10:57:33.642Z,93.64
2022-11-19T11:00:02.561Z,94.35
2022-11-19T11:02:33.868Z,94.31
2022-11-19T11:05:11.655Z,94.42
2022-11-19T11:07:57.468Z,94.89
2022-11-19T11:10:42.661Z,94.68
2022-11-19T11:13:38.338Z,94.27
2022-11-19T11:16:09.274Z,94.11
2022-11-19T11:18:41.310Z,94.38
2022-11-19T11:21:13.179Z,94.40
2022-11-19T11:23:52.292Z,94.16
2022-11-19T11:26:24.093Z,95.00
2022-11-19T11:28:57.535Z,94.99
2022-11-19T11:31:34.694Z,94.82
2022-11-19T11:34:03.677Z,94.88
2022-11-19T11:36:34.732Z,95.55
2022-11-19T11:39:06.223Z,95.63
2022-11-19T11:44:29.637Z,95.82
2022-11-19T11:47:00.338Z,94.94
2022-11-19T11:49:31.578Z,95.55
2022-11-19T11:52:06.940Z,95.15
2022-11-19T11:54:38.838Z,95.40
2022-11-19T11:57:16.352Z,95.48
2022-11-19T11:59:45.275Z,95.58
2022-11-19T12:02:22.199Z,95.51
2022-11-19T12:04:52.278Z,95.66
2022-11-19T12:07:31.534Z,95.65
2022-11-19T12:10:08.402Z,95.59
2022-11-19T12:12:40.076Z,95.96
2022-11-19T12:15:16.888Z,95.86
2022-11-19T12:17:49.932Z,95.95
2022-11-19T12:20:22.633Z,95.43
2022-11-19T12:23:04.970Z,96.28
2022-11-19T12:25:38.726Z,96.99
2022-11-19T12:28:16.467Z,96.52
2022-11-19T12:30:53.683Z,96.66
2022-11-19T12:33:36.964Z,97.33
2022-11-19T12:36:12.762Z,96.34
2022-11-19T12:38:47.815Z,96.31
2022-11-19T12:41:43.625Z,96.22
2022-11-19T12:44:19.225Z,95.96
2022-11-19T12:46:53.729Z,96.13
2022-11-19T12:49:43.402Z,95.76
2022-11-19T12:52:29.951Z,95.09
2022-11-19T12:55:04.749Z,95.09
2022-11-19T12:57:43.907Z,96.22
2022-11-19T13:00:16.062Z,96.22
2022-11-19T13:02:52.338Z,96.26
2022-11-19T13:05:21.801Z,96.23
2022-11-19T13:07:54.173Z,95.86
2022-11-19T13:10:25.137Z,95.41
2022-11-19T13:12:57.103Z,95.48
2022-11-19T13:15:28.769Z,95.36
2022-11-19T13:17:58.551Z,94.62
2022-11-19T13:20:33.700Z,94.34
2022-11-19T13:23:04.829Z,93.93
2022-11-19T13:25:36.991Z,94.64
2022-11-19T13:28:11.909Z,95.04
2022-11-19T13:30:43.406Z,94.78
2022-11-19T13:33:15.461Z,94.60
2022-11-19T13:35:47.918Z,94.10
2022-11-19T13:38:20.537Z,95.88
2022-11-19T13:40:51.965Z,96.31
2022-11-19T13:43:40.647Z,97.00
2022-11-19T13:46:20.480Z,96.30
2022-11-19T13:48:53.248Z,96.45
2022-11-19T13:51:29.609Z,96.41
2022-11-19T13:54:02.982Z,96.35
2022-11-19T13:56:58.878Z,96.47
2022-11-19T13:59:41.882Z,96.43
2022-11-19T14:02:49.856Z,95.96
2022-11-19T14:05:32.102Z,95.53
2022-11-19T14:08:17.811Z,95.80
2022-11-19T14:10:57.608Z,95.47
2022-11-19T14:13:40.075Z,95.47
2022-11-19T14:16:34.954Z,94.89
2022-11-19T14:19:22.560Z,95.24
2022-11-19T14:22:12.199Z,95.07
2022-11-19T14:25:16.471Z,94.73
2022-11-19T14:27:45.414Z,94.90
2022-11-19T14:30:18.772Z,94.44
2022-11-19T14:32:52.585Z,94.25
2022-11-19T14:35:47.451Z,94.38
2022-11-19T14:38:34.837Z,94.60
2022-11-19T14:41:32.919Z,94.68
2022-11-19T14:44:10.547Z,94.67
2022-11-19T14:46:41.604Z,94.98
2022-11-19T14:49:38.981Z,94.74
2022-11-19T14:52:20.356Z,94.31
2022-11-19T14:54:54.076Z,93.62
2022-11-19T14:57:30.200Z,93.79
2022-11-19T15:00:00.788Z,93.73
